Time;durP1;ratioP1;P1;durP2;ratioP2;P2;SDS_P1;SDS_P2;PMS_P1;PMS_P2;Temp;Humidity;BMP_temperature;BMP_pressure;BME280_temperature;BME280_humidity;BME280_pressure;Samples;Min_cycle;Max_cycle;Signal;HPM_P1;HPM_P2
2021/11/30 00:02:19;;;;;;;12.57;5.18;;;3.40;99.90;;;;;;5006618;28;20634;-79
2021/11/30 00:04:44;;;;;;;9.93;5.90;;;3.40;99.90;;;;;;4988448;28;20030;-79
2021/11/30 00:07:10;;;;;;;7.65;4.30;;;3.40;99.90;;;;;;5007147;28;20041;-79
2021/11/30 00:12:21;;;;;;;5.13;3.05;;;3.40;99.90;;;;;;5006471;28;20025;-79
2021/11/30 00:14:48;;;;;;;11.07;2.33;;;3.40;99.90;;;;;;4987696;28;20535;-79
2021/11/30 00:17:13;;;;;;;13.02;6.13;;;3.40;99.90;;;;;;5006373;28;20029;-79
2021/11/30 00:19:39;;;;;;;10.88;5.05;;;3.40;99.90;;;;;;4989661;28;20055;-78
2021/11/30 00:22:06;;;;;;;25.25;7.03;;;3.40;99.90;;;;;;5001858;28;20068;-79
2021/11/30 00:24:31;;;;;;;11.07;6.03;;;3.40;99.90;;;;;;5007312;28;20065;-79
2021/11/30 00:26:57;;;;;;;16.27;7.10;;;3.30;99.90;;;;;;5006774;28;20060;-79
2021/11/30 00:29:23;;;;;;;21.33;7.82;;;3.30;99.90;;;;;;4972905;28;20026;-79
2021/11/30 00:31:49;;;;;;;6.32;3.92;;;3.30;99.90;;;;;;4989511;28;20504;-79
2021/11/30 00:34:14;;;;;;;18.40;7.75;;;3.40;99.90;;;;;;4989662;28;20084;-79
2021/11/30 00:36:40;;;;;;;17.95;10.02;;;3.30;99.90;;;;;;5021211;28;20120;-79
2021/11/30 00:39:05;;;;;;;9.55;5.18;;;3.30;99.90;;;;;;4968519;28;20025;-79
2021/11/30 00:41:31;;;;;;;16.90;6.30;;;3.30;99.90;;;;;;4968435;28;20032;-79
2021/11/30 00:43:57;;;;;;;6.38;3.42;;;3.30;99.90;;;;;;4985282;28;20448;-79
2021/11/30 00:48:58;;;;;;;6.32;4.25;;;3.30;99.90;;;;;;5008555;28;20112;-79
2021/11/30 00:51:23;;;;;;;9.93;4.68;;;3.30;99.90;;;;;;4968082;28;20101;-79
2021/11/30 00:53:49;;;;;;;8.10;5.38;;;3.30;99.90;;;;;;4973169;28;20028;-79
2021/11/30 00:56:15;;;;;;;7.28;3.58;;;3.30;99.90;;;;;;4980971;28;20025;-79
2021/11/30 00:58:41;;;;;;;11.45;5.28;;;3.30;99.90;;;;;;5006424;28;20080;-79
2021/11/30 01:01:07;;;;;;;15.75;8.40;;;3.30;99.90;;;;;;5006619;28;20041;-78
2021/11/30 01:03:32;;;;;;;12.00;6.82;;;3.30;99.90;;;;;;4989471;28;20060;-79
2021/11/30 01:05:58;;;;;;;11.48;5.47;;;3.30;99.90;;;;;;4975369;28;20080;-79
2021/11/30 01:08:23;;;;;;;12.52;4.90;;;3.30;99.90;;;;;;4991485;28;20033;-79
2021/11/30 01:10:49;;;;;;;13.88;7.07;;;3.30;99.90;;;;;;4988707;28;20022;-79
2021/11/30 01:13:15;;;;;;;15.55;6.15;;;3.30;99.90;;;;;;4990248;28;20034;-79
2021/11/30 01:15:41;;;;;;;13.63;7.03;;;3.30;99.90;;;;;;4974689;28;20037;-78
2021/11/30 01:18:06;;;;;;;11.25;5.78;;;3.30;99.90;;;;;;4980394;28;20513;-79
2021/11/30 01:20:32;;;;;;;13.77;6.00;;;3.40;99.90;;;;;;5006323;28;20053;-79
2021/11/30 01:22:57;;;;;;;16.40;7.18;;;3.30;99.90;;;;;;4968746;28;20038;-79
2021/11/30 01:25:23;;;;;;;20.70;6.43;;;3.30;99.90;;;;;;4993161;28;20025;-79
2021/11/30 01:27:49;;;;;;;20.90;7.80;;;3.30;99.90;;;;;;5010382;28;20060;-79
2021/11/30 01:30:15;;;;;;;18.30;7.80;;;3.30;99.90;;;;;;4977846;28;20034;-78
2021/11/30 01:32:44;;;;;;;12.52;8.02;;;3.30;99.90;;;;;;5003311;28;20084;-78
2021/11/30 01:35:10;;;;;;;19.95;9.38;;;3.30;99.90;;;;;;4993701;28;20060;-78
2021/11/30 01:37:37;;;;;;;19.63;9.85;;;3.30;99.90;;;;;;5003558;28;20508;-79
2021/11/30 01:40:05;;;;;;;19.77;11.80;;;3.30;99.90;;;;;;4991957;28;20079;-78
2021/11/30 01:42:31;;;;;;;12.30;7.00;;;3.30;99.90;;;;;;4982332;28;20044;-78
2021/11/30 01:45:04;;;;;;;7.85;5.22;;;3.30;99.90;;;;;;4995655;28;20034;-79
2021/11/30 01:49:59;;;;;;;10.93;6.88;;;3.30;99.90;;;;;;4988882;28;20030;-79
2021/11/30 01:52:25;;;;;;;12.70;6.43;;;3.30;99.90;;;;;;4987499;28;20057;-78
2021/11/30 01:54:51;;;;;;;14.98;7.05;;;3.20;99.90;;;;;;4975314;28;20037;-79
2021/11/30 01:57:19;;;;;;;14.23;7.25;;;3.20;99.90;;;;;;5008986;28;22116;-78
2021/11/30 01:59:45;;;;;;;10.90;7.05;;;3.20;99.90;;;;;;4977675;28;20588;-78
2021/11/30 02:02:11;;;;;;;16.80;8.07;;;3.20;99.90;;;;;;4992450;28;20109;-79
2021/11/30 02:04:37;;;;;;;13.13;7.43;;;3.20;99.90;;;;;;4973970;28;20485;-79
2021/11/30 02:07:03;;;;;;;9.57;5.80;;;3.20;99.90;;;;;;4970417;28;20048;-78
2021/11/30 02:09:29;;;;;;;13.25;6.70;;;3.20;99.90;;;;;;4975834;28;20827;-78
2021/11/30 02:11:55;;;;;;;17.27;7.57;;;3.20;99.90;;;;;;4987419;28;20026;-78
2021/11/30 02:14:21;;;;;;;15.30;8.38;;;3.20;99.90;;;;;;4976778;28;20040;-78
2021/11/30 02:16:48;;;;;;;15.80;6.18;;;3.20;99.90;;;;;;4976341;28;20030;-79
2021/11/30 02:19:13;;;;;;;16.63;5.40;;;3.10;99.90;;;;;;5004843;28;20037;-78
2021/11/30 02:21:40;;;;;;;11.10;5.55;;;3.10;99.90;;;;;;5009033;28;20486;-78
2021/11/30 02:24:09;;;;;;;14.75;5.38;;;3.10;99.90;;;;;;4992045;28;20037;-78
2021/11/30 02:26:35;;;;;;;9.25;4.63;;;3.10;99.90;;;;;;5008981;28;20547;-78
2021/11/30 02:29:02;;;;;;;11.52;5.97;;;3.10;99.90;;;;;;5008657;28;20025;-79
2021/11/30 02:31:33;;;;;;;17.52;7.93;;;3.00;99.90;;;;;;4992178;28;20044;-79
2021/11/30 02:33:59;;;;;;;11.60;4.43;;;3.00;99.90;;;;;;4977465;28;20029;-79
2021/11/30 02:36:48;;;;;;;11.85;5.07;;;3.00;99.90;;;;;;4992667;28;20026;-79
2021/11/30 02:39:16;;;;;;;15.23;6.30;;;2.90;99.90;;;;;;4982470;28;20025;-79
2021/11/30 02:41:42;;;;;;;13.50;6.80;;;2.90;99.90;;;;;;5006625;28;20485;-79
2021/11/30 02:44:08;;;;;;;10.57;4.57;;;2.80;99.90;;;;;;4990578;28;20026;-79
2021/11/30 02:46:38;;;;;;;10.63;4.45;;;2.80;99.90;;;;;;4989000;28;20037;-79
2021/11/30 02:49:10;;;;;;;16.52;6.38;;;2.90;99.90;;;;;;5001740;28;20033;-79
2021/11/30 02:51:37;;;;;;;10.48;5.30;;;2.90;99.90;;;;;;4982513;28;20041;-79
2021/11/30 02:54:07;;;;;;;12.43;4.28;;;2.80;99.90;;;;;;4975885;28;20030;-80
2021/11/30 02:56:40;;;;;;;15.10;5.55;;;2.80;99.90;;;;;;5002693;28;20026;-80
2021/11/30 02:59:06;;;;;;;18.67;6.60;;;2.80;99.90;;;;;;4973496;28;20025;-79
2021/11/30 03:01:32;;;;;;;15.55;6.28;;;2.70;99.90;;;;;;4993187;28;20029;-80
2021/11/30 03:03:58;;;;;;;19.33;6.80;;;2.60;99.90;;;;;;4983799;28;20026;-80
2021/11/30 03:06:24;;;;;;;12.00;4.50;;;2.70;99.90;;;;;;4991498;28;20481;-80
2021/11/30 03:08:49;;;;;;;8.25;4.00;;;2.70;99.90;;;;;;5007455;28;20040;-80
2021/11/30 03:11:15;;;;;;;8.60;3.78;;;2.70;99.90;;;;;;4974191;28;20044;-80
2021/11/30 03:13:40;;;;;;;13.35;6.65;;;2.70;99.90;;;;;;4957890;28;20044;-80
2021/11/30 03:16:06;;;;;;;11.75;4.70;;;2.60;99.90;;;;;;4961916;28;20029;-80
2021/11/30 03:18:34;;;;;;;15.73;4.95;;;2.60;99.90;;;;;;4976504;28;20049;-81
2021/11/30 03:20:59;;;;;;;10.25;4.53;;;2.60;99.90;;;;;;4971751;28;20389;-80
2021/11/30 03:23:25;;;;;;;7.35;3.45;;;2.60;99.90;;;;;;4973436;28;20025;-80
2021/11/30 03:25:50;;;;;;;9.50;3.60;;;2.60;99.90;;;;;;4971604;28;20096;-80
2021/11/30 03:28:16;;;;;;;14.82;6.28;;;2.50;99.90;;;;;;4975346;28;20041;-80
2021/11/30 03:30:53;;;;;;;4.82;2.65;;;2.50;99.90;;;;;;4972097;28;20037;-80
2021/11/30 03:36:02;;;;;;;10.93;5.90;;;2.50;99.90;;;;;;5010946;28;20324;-80
2021/11/30 03:38:29;;;;;;;8.77;4.80;;;2.40;99.90;;;;;;4975042;28;20037;-80
2021/11/30 03:40:55;;;;;;;8.00;4.13;;;2.40;99.90;;;;;;4990221;28;20413;-80
2021/11/30 03:43:20;;;;;;;11.13;3.63;;;2.40;99.90;;;;;;4989820;28;20025;-80
2021/11/30 03:45:46;;;;;;;6.22;3.13;;;2.40;99.90;;;;;;4990397;28;20040;-81
2021/11/30 03:48:12;;;;;;;4.18;2.83;;;2.30;99.90;;;;;;4984509;28;20504;-80
2021/11/30 03:50:37;;;;;;;10.95;4.45;;;2.30;99.90;;;;;;5008035;28;20037;-80
2021/11/30 03:53:03;;;;;;;4.40;2.97;;;2.30;99.90;;;;;;5008300;28;20026;-80
2021/11/30 03:55:29;;;;;;;8.23;4.50;;;2.30;99.90;;;;;;4990335;28;20026;-80
2021/11/30 03:57:54;;;;;;;4.65;2.42;;;2.20;99.90;;;;;;4971659;28;20033;-80
2021/11/30 04:00:20;;;;;;;4.10;2.72;;;2.20;99.90;;;;;;4974725;28;20048;-82
2021/11/30 04:02:45;;;;;;;6.20;4.07;;;2.20;99.90;;;;;;4970899;28;20083;-82
2021/11/30 04:05:11;;;;;;;7.13;3.67;;;2.10;99.90;;;;;;5005577;28;20033;-83
2021/11/30 04:07:36;;;;;;;6.18;3.53;;;2.10;99.90;;;;;;5007472;28;20044;-82
2021/11/30 04:10:02;;;;;;;4.35;2.88;;;2.10;99.90;;;;;;4971536;28;20029;-82
2021/11/30 04:12:28;;;;;;;4.45;2.65;;;2.20;99.90;;;;;;4973264;28;20041;-82
2021/11/30 04:14:53;;;;;;;4.78;2.72;;;2.20;99.90;;;;;;4983179;28;20044;-83
2021/11/30 04:17:19;;;;;;;6.93;3.17;;;2.10;99.90;;;;;;4985783;28;20115;-82
2021/11/30 04:19:46;;;;;;;7.88;3.28;;;2.20;99.90;;;;;;5006664;28;20045;-82
2021/11/30 04:22:11;;;;;;;4.05;2.17;;;2.20;99.90;;;;;;4987145;28;20113;-82
2021/11/30 04:24:39;;;;;;;3.45;2.08;;;2.20;99.90;;;;;;4973773;28;20112;-82
2021/11/30 04:27:04;;;;;;;6.78;3.47;;;2.30;99.90;;;;;;4975159;28;20037;-82
2021/11/30 04:29:31;;;;;;;3.75;2.45;;;2.30;99.90;;;;;;5005426;28;20554;-82
2021/11/30 04:31:56;;;;;;;5.10;3.45;;;2.40;99.90;;;;;;4966888;28;20024;-82
2021/11/30 04:34:22;;;;;;;5.93;3.00;;;2.40;99.90;;;;;;4990482;28;20452;-83
2021/11/30 04:36:47;;;;;;;6.78;3.13;;;2.40;99.90;;;;;;4968629;28;20036;-83
2021/11/30 04:39:13;;;;;;;6.78;2.63;;;2.40;99.90;;;;;;4970996;28;20022;-83
2021/11/30 04:41:42;;;;;;;5.10;2.50;;;2.50;99.90;;;;;;4990397;28;20116;-82
2021/11/30 04:44:09;;;;;;;2.75;1.38;;;2.50;99.90;;;;;;4999692;28;20048;-83
2021/11/30 04:46:49;;;;;;;5.40;2.40;;;2.60;99.90;;;;;;4989230;28;20036;-83
2021/11/30 04:49:26;;;;;;;2.97;2.30;;;2.60;99.90;;;;;;4990859;28;20045;-83
2021/11/30 04:51:52;;;;;;;5.53;4.18;;;2.70;99.90;;;;;;4985020;28;20037;-83
2021/11/30 04:54:17;;;;;;;4.30;1.77;;;2.70;99.90;;;;;;4991392;28;20503;-83
2021/11/30 04:56:43;;;;;;;3.08;2.72;;;2.70;99.90;;;;;;5005957;28;20500;-83
2021/11/30 04:59:09;;;;;;;5.57;3.72;;;2.70;99.90;;;;;;4973104;28;20066;-86
2021/11/30 05:01:34;;;;;;;2.63;2.15;;;2.80;99.90;;;;;;5007293;28;20080;-83
2021/11/30 05:04:00;;;;;;;5.97;3.22;;;2.80;99.90;;;;;;4970013;28;20031;-83
2021/11/30 05:06:26;;;;;;;6.82;3.47;;;2.90;99.90;;;;;;4982508;28;20110;-83
2021/11/30 05:08:52;;;;;;;8.20;3.50;;;2.90;99.90;;;;;;4974880;28;20034;-83
2021/11/30 05:11:17;;;;;;;7.22;2.83;;;2.90;99.90;;;;;;5006770;28;20108;-83
2021/11/30 05:13:43;;;;;;;3.60;3.00;;;3.00;99.90;;;;;;5004939;28;20033;-83
2021/11/30 05:16:08;;;;;;;5.53;3.38;;;3.10;99.90;;;;;;4989197;28;20041;-83
2021/11/30 05:18:34;;;;;;;4.90;3.38;;;3.10;99.90;;;;;;4991234;28;20041;-83
2021/11/30 05:20:59;;;;;;;5.57;3.67;;;3.10;99.90;;;;;;5004947;28;20022;-83
2021/11/30 05:23:28;;;;;;;3.88;2.97;;;3.10;99.90;;;;;;4980011;28;20040;-83
2021/11/30 05:25:59;;;;;;;4.18;2.30;;;3.10;99.90;;;;;;5001793;28;20029;-83
2021/11/30 05:28:26;;;;;;;5.43;2.85;;;3.20;99.90;;;;;;4971400;28;20076;-83
2021/11/30 05:30:52;;;;;;;2.45;2.05;;;3.30;99.90;;;;;;4989320;28;20030;-83
2021/11/30 05:33:17;;;;;;;4.10;2.65;;;3.30;99.90;;;;;;4969323;28;20101;-84
2021/11/30 05:35:43;;;;;;;5.07;4.57;;;3.30;99.90;;;;;;5006577;28;20037;-83
2021/11/30 05:38:09;;;;;;;5.03;2.45;;;3.30;99.90;;;;;;4975115;28;20033;-83
2021/11/30 05:40:34;;;;;;;5.53;4.35;;;3.30;99.90;;;;;;4972062;28;20105;-83
2021/11/30 05:43:00;;;;;;;5.28;3.92;;;3.40;99.90;;;;;;4988529;28;20044;-83
2021/11/30 05:45:25;;;;;;;7.82;4.22;;;3.40;99.90;;;;;;4989711;28;20121;-84
2021/11/30 05:47:51;;;;;;;3.85;2.38;;;3.40;99.90;;;;;;5003403;28;20493;-84
2021/11/30 05:50:17;;;;;;;4.88;2.72;;;3.40;99.90;;;;;;4988461;28;20085;-83
2021/11/30 05:52:42;;;;;;;4.05;2.88;;;3.50;99.90;;;;;;4971922;28;20034;-83
2021/11/30 05:55:08;;;;;;;4.53;3.33;;;3.50;99.90;;;;;;4988485;28;20457;-84
2021/11/30 05:57:34;;;;;;;3.22;2.08;;;3.50;99.90;;;;;;4969712;28;20508;-83
2021/11/30 06:00:01;;;;;;;3.20;2.78;;;3.60;99.90;;;;;;4972025;28;20041;-84
2021/11/30 06:02:30;;;;;;;3.13;2.22;;;3.60;99.90;;;;;;4973328;28;20034;-84
2021/11/30 06:04:56;;;;;;;3.50;2.00;;;3.60;99.90;;;;;;4981712;28;20037;-85
2021/11/30 06:07:21;;;;;;;2.63;2.17;;;3.60;99.90;;;;;;4987681;28;20046;-85
2021/11/30 06:09:47;;;;;;;2.83;2.05;;;3.70;99.90;;;;;;4969072;28;20389;-85
2021/11/30 06:12:12;;;;;;;1.98;1.58;;;3.70;99.90;;;;;;4991835;28;20021;-84
2021/11/30 06:14:38;;;;;;;2.90;2.22;;;3.70;99.90;;;;;;4968476;28;20030;-84
2021/11/30 06:17:04;;;;;;;4.00;2.78;;;3.70;99.90;;;;;;4974153;28;20038;-83
2021/11/30 06:19:30;;;;;;;3.50;2.60;;;3.80;99.90;;;;;;4974470;28;20603;-84
2021/11/30 06:21:55;;;;;;;2.00;1.80;;;3.80;99.90;;;;;;5008636;28;20054;-83
2021/11/30 06:24:21;;;;;;;2.08;1.73;;;3.70;99.90;;;;;;4974426;28;20041;-83
2021/11/30 06:26:49;;;;;;;4.47;2.10;;;3.90;99.90;;;;;;4974482;28;20512;-83
2021/11/30 06:29:15;;;;;;;1.88;1.65;;;3.90;99.90;;;;;;4989754;28;20105;-83
2021/11/30 06:31:42;;;;;;;2.00;1.73;;;3.90;99.90;;;;;;4975127;28;20037;-82
2021/11/30 06:34:08;;;;;;;3.00;2.15;;;3.90;99.90;;;;;;4981128;28;20029;-81
2021/11/30 06:36:33;;;;;;;2.42;1.80;;;3.90;99.90;;;;;;4973922;28;20018;-82
2021/11/30 06:38:59;;;;;;;1.70;1.33;;;4.00;99.90;;;;;;4969060;28;20113;-82
2021/11/30 06:41:24;;;;;;;2.08;1.88;;;4.00;99.90;;;;;;4990258;28;20030;-83
2021/11/30 06:43:50;;;;;;;3.70;2.33;;;4.00;99.90;;;;;;4969662;28;20074;-82
2021/11/30 06:46:16;;;;;;;3.28;2.70;;;4.00;99.90;;;;;;4971925;28;20130;-83
2021/11/30 06:48:41;;;;;;;1.63;1.23;;;4.10;99.90;;;;;;4993066;28;20029;-82
2021/11/30 06:51:07;;;;;;;2.30;1.83;;;4.10;99.90;;;;;;4976610;28;20080;-83
2021/11/30 06:53:33;;;;;;;4.15;1.98;;;4.10;99.90;;;;;;5005473;28;20088;-83
2021/11/30 06:55:59;;;;;;;5.65;3.00;;;4.20;99.90;;;;;;4974166;28;20112;-83
2021/11/30 06:58:24;;;;;;;2.92;2.42;;;4.20;99.90;;;;;;4975022;28;20530;-82
2021/11/30 07:00:52;;;;;;;2.05;1.50;;;4.20;99.90;;;;;;4969103;28;20052;-84
2021/11/30 07:03:20;;;;;;;4.20;3.33;;;4.30;99.90;;;;;;4991680;28;20457;-85
2021/11/30 07:05:46;;;;;;;3.53;2.58;;;4.30;99.90;;;;;;5005523;28;20044;-85
2021/11/30 07:08:18;;;;;;;3.88;2.78;;;4.30;99.90;;;;;;4974204;28;20508;-84
2021/11/30 07:13:31;;;;;;;4.20;2.55;;;4.30;99.90;;;;;;4983399;28;20034;-84
2021/11/30 07:16:02;;;;;;;5.03;3.53;;;4.40;99.90;;;;;;4994058;28;20117;-84
2021/11/30 07:18:28;;;;;;;4.90;3.38;;;4.40;99.90;;;;;;4993007;28;20124;-85
2021/11/30 07:20:53;;;;;;;6.05;4.10;;;4.50;99.90;;;;;;4985668;28;20037;-84
2021/11/30 07:23:19;;;;;;;4.95;4.15;;;4.50;99.90;;;;;;4986517;28;20034;-84
2021/11/30 07:25:45;;;;;;;4.60;3.15;;;4.60;99.90;;;;;;4978805;28;20083;-84
2021/11/30 07:28:10;;;;;;;4.40;3.75;;;4.60;99.90;;;;;;4987727;28;20041;-85
2021/11/30 07:30:36;;;;;;;4.68;3.20;;;4.60;99.90;;;;;;5002635;28;20033;-85
2021/11/30 07:33:02;;;;;;;7.88;4.13;;;4.70;99.90;;;;;;4973332;28;20029;-85
2021/11/30 07:35:29;;;;;;;3.05;2.20;;;4.70;99.90;;;;;;4987664;28;20037;-85
2021/11/30 07:37:55;;;;;;;7.28;5.43;;;4.80;99.90;;;;;;4986124;28;20034;-84
2021/11/30 07:40:20;;;;;;;7.03;5.55;;;4.80;99.90;;;;;;5006399;28;20140;-84
2021/11/30 07:42:49;;;;;;;8.63;6.65;;;4.80;99.90;;;;;;4989179;28;20450;-85
2021/11/30 07:45:15;;;;;;;10.73;7.07;;;4.90;99.90;;;;;;4991294;28;20434;-84
2021/11/30 07:47:40;;;;;;;10.48;7.47;;;4.90;99.90;;;;;;4989877;28;20076;-84
2021/11/30 07:50:07;;;;;;;9.10;6.32;;;5.00;99.90;;;;;;4968294;28;20075;-85
2021/11/30 07:52:37;;;;;;;7.07;6.10;;;5.00;99.90;;;;;;4958497;28;20057;-83
2021/11/30 07:55:05;;;;;;;9.65;7.85;;;5.10;99.90;;;;;;4968277;28;20310;-84
2021/11/30 07:57:31;;;;;;;11.48;8.02;;;5.20;99.90;;;;;;4970881;28;20480;-84
2021/11/30 07:59:58;;;;;;;14.02;8.77;;;5.20;99.90;;;;;;4984536;28;20527;-84
2021/11/30 08:02:23;;;;;;;9.48;7.70;;;5.20;99.90;;;;;;5000342;28;20029;-84
2021/11/30 08:04:49;;;;;;;9.40;6.05;;;5.30;99.90;;;;;;4999364;28;20576;-83
2021/11/30 08:07:16;;;;;;;10.98;5.28;;;5.30;99.90;;;;;;4985415;28;20230;-84
2021/11/30 08:09:44;;;;;;;18.05;10.65;;;5.40;99.90;;;;;;4967851;28;20030;-84
2021/11/30 08:12:10;;;;;;;7.30;4.95;;;5.40;99.90;;;;;;4984492;28;20037;-83
2021/11/30 08:14:36;;;;;;;7.88;6.72;;;5.40;99.90;;;;;;4978541;28;20041;-84
2021/11/30 08:17:02;;;;;;;10.50;7.15;;;5.40;99.90;;;;;;5002421;28;20034;-85
2021/11/30 08:19:28;;;;;;;8.25;7.45;;;5.50;99.90;;;;;;5003890;28;20051;-84
2021/11/30 08:21:54;;;;;;;7.20;6.25;;;5.50;99.90;;;;;;4962059;28;20129;-84
2021/11/30 08:24:24;;;;;;;9.52;6.85;;;5.60;99.90;;;;;;4981336;28;20095;-84
2021/11/30 08:26:49;;;;;;;6.78;5.82;;;5.60;99.90;;;;;;4966809;28;20226;-84
2021/11/30 08:29:16;;;;;;;6.03;5.07;;;5.60;99.90;;;;;;4970683;28;20542;-84
2021/11/30 08:31:42;;;;;;;10.32;7.47;;;5.70;99.90;;;;;;4997894;28;20384;-82
2021/11/30 08:34:07;;;;;;;5.93;5.32;;;5.70;99.90;;;;;;4986370;28;20132;-83
2021/11/30 08:36:33;;;;;;;7.10;4.85;;;5.70;99.90;;;;;;5002937;28;20112;-82
2021/11/30 08:38:58;;;;;;;5.10;3.70;;;5.80;99.90;;;;;;4962686;28;20038;-83
2021/11/30 08:41:24;;;;;;;6.38;4.70;;;5.80;99.90;;;;;;4998963;28;20021;-84
2021/11/30 08:43:50;;;;;;;5.35;3.95;;;5.80;99.90;;;;;;4988224;28;20057;-83
2021/11/30 08:46:16;;;;;;;4.43;3.28;;;5.90;99.90;;;;;;4970505;28;20028;-84
2021/11/30 08:48:42;;;;;;;7.20;5.72;;;5.90;99.90;;;;;;5003801;28;20037;-84
2021/11/30 08:51:07;;;;;;;5.53;4.80;;;5.90;99.90;;;;;;4986907;28;20041;-85
2021/11/30 08:53:34;;;;;;;3.20;2.35;;;5.90;99.90;;;;;;5001839;28;20034;-82
2021/11/30 08:56:01;;;;;;;5.85;4.47;;;6.00;99.90;;;;;;4999880;28;20037;-82
2021/11/30 08:58:27;;;;;;;5.28;4.38;;;6.00;99.90;;;;;;4970395;28;20025;-83
2021/11/30 09:00:52;;;;;;;6.15;4.95;;;6.00;99.90;;;;;;4986476;28;20034;-83
2021/11/30 09:03:18;;;;;;;6.57;4.28;;;6.10;99.90;;;;;;4982702;28;20033;-83
2021/11/30 09:05:43;;;;;;;9.90;5.70;;;6.10;99.90;;;;;;4980012;28;20381;-83
2021/11/30 09:08:11;;;;;;;7.05;4.93;;;6.10;99.90;;;;;;4984169;28;20048;-83
2021/11/30 09:10:37;;;;;;;2.88;2.58;;;6.10;99.90;;;;;;4984015;28;20415;-83
2021/11/30 09:13:02;;;;;;;6.20;4.85;;;6.10;99.90;;;;;;4982357;28;20056;-84
2021/11/30 09:15:28;;;;;;;4.75;3.70;;;6.10;99.90;;;;;;4987201;28;20033;-83
2021/11/30 09:17:55;;;;;;;6.85;3.47;;;6.20;99.90;;;;;;4985526;28;20037;-83
2021/11/30 09:20:20;;;;;;;4.88;3.78;;;6.20;99.90;;;;;;4984086;28;20033;-83
2021/11/30 09:22:46;;;;;;;4.00;3.13;;;6.20;99.90;;;;;;4969532;28;20056;-83
2021/11/30 09:25:11;;;;;;;6.95;3.33;;;6.20;99.90;;;;;;4986738;28;20033;-84
2021/11/30 09:27:38;;;;;;;4.93;3.70;;;6.30;99.90;;;;;;4968180;28;20060;-83
2021/11/30 09:30:05;;;;;;;6.95;3.53;;;6.20;99.90;;;;;;4984093;28;20045;-83
2021/11/30 09:32:30;;;;;;;5.00;3.13;;;6.30;99.90;;;;;;4984342;28;20125;-83
2021/11/30 09:34:59;;;;;;;4.93;3.08;;;6.30;99.90;;;;;;4966071;28;20109;-84
2021/11/30 09:37:26;;;;;;;3.70;3.03;;;6.40;99.90;;;;;;4964461;28;20034;-83
2021/11/30 09:39:51;;;;;;;4.53;2.90;;;6.30;99.90;;;;;;4968083;28;20651;-83
2021/11/30 09:42:17;;;;;;;3.13;2.58;;;6.40;99.90;;;;;;4974413;28;20037;-83
2021/11/30 09:44:45;;;;;;;4.50;4.03;;;6.40;99.90;;;;;;4975969;28;20059;-83
2021/11/30 09:47:12;;;;;;;5.75;3.90;;;6.40;99.90;;;;;;4974280;28;20141;-83
2021/11/30 09:49:37;;;;;;;5.05;3.60;;;6.40;99.90;;;;;;4977593;28;20037;-83
2021/11/30 09:52:06;;;;;;;3.67;3.30;;;6.50;99.90;;;;;;4955582;28;20386;-83
2021/11/30 09:54:32;;;;;;;6.28;4.05;;;6.40;99.90;;;;;;4968375;28;20102;-83
2021/11/30 09:56:59;;;;;;;4.45;2.95;;;6.50;99.90;;;;;;4998809;28;20489;-83
2021/11/30 09:59:24;;;;;;;4.32;3.30;;;6.50;99.90;;;;;;4982348;28;20031;-84
2021/11/30 10:01:50;;;;;;;7.53;5.15;;;6.50;99.90;;;;;;5002434;28;20675;-83
2021/11/30 10:04:15;;;;;;;5.90;4.13;;;6.60;99.90;;;;;;4985961;28;20031;-82
2021/11/30 10:06:41;;;;;;;4.47;3.78;;;6.60;99.90;;;;;;4971196;28;20108;-84
2021/11/30 10:09:21;;;;;;;6.00;4.95;;;6.60;99.90;;;;;;4988281;28;20021;-83
2021/11/30 10:12:08;;;;;;;3.00;2.20;;;6.60;99.90;;;;;;5004171;28;20030;-83
2021/11/30 10:14:35;;;;;;;;;;;6.60;99.90;;;;;;4988118;28;20034;-84
2021/11/30 10:17:26;;;;;;;5.43;3.78;;;6.60;99.90;;;;;;5000665;28;20123;-83
2021/11/30 10:19:51;;;;;;;4.95;3.30;;;6.70;99.90;;;;;;4982914;28;20045;-83
2021/11/30 10:22:41;;;;;;;4.10;3.70;;;6.70;99.90;;;;;;5022100;28;20033;-83
2021/11/30 10:25:13;;;;;;;4.32;3.70;;;6.80;99.90;;;;;;4973883;28;20757;-83
2021/11/30 10:27:43;;;;;;;4.80;3.00;;;6.80;99.90;;;;;;4986212;28;20083;-83
2021/11/30 10:30:14;;;;;;;5.63;3.63;;;6.80;99.90;;;;;;4989783;28;20034;-83
2021/11/30 10:32:43;;;;;;;4.85;3.67;;;6.80;99.90;;;;;;4977705;28;20039;-83
2021/11/30 10:35:11;;;;;;;3.10;1.92;;;6.90;99.90;;;;;;5003306;28;20367;-83
2021/11/30 10:37:40;;;;;;;3.40;3.10;;;6.90;99.90;;;;;;5003452;28;20095;-83
2021/11/30 10:40:11;;;;;;;2.88;2.53;;;6.90;99.90;;;;;;4983584;28;20292;-82
2021/11/30 10:42:44;;;;;;;4.95;3.45;;;6.90;99.90;;;;;;4981687;28;20029;-83
2021/11/30 10:45:09;;;;;;;4.70;2.45;;;7.00;99.90;;;;;;4970049;28;20461;-83
2021/11/30 10:47:36;;;;;;;6.45;4.43;;;7.00;99.90;;;;;;4988091;28;20046;-84
2021/11/30 10:50:11;;;;;;;5.43;4.32;;;7.00;99.90;;;;;;4984443;28;20034;-83
2021/11/30 10:52:40;;;;;;;3.25;2.95;;;7.10;99.90;;;;;;4989036;28;20047;-83
2021/11/30 10:55:08;;;;;;;3.47;3.15;;;7.10;99.90;;;;;;4965103;28;20046;-84
2021/11/30 10:57:35;;;;;;;4.75;4.15;;;7.10;99.90;;;;;;4973167;28;20033;-83
2021/11/30 11:00:07;;;;;;;3.45;2.65;;;7.10;99.90;;;;;;4972458;28;20033;-83
2021/11/30 11:03:08;;;;;;;3.42;2.80;;;7.10;99.90;;;;;;5003373;28;20041;-83
2021/11/30 11:05:42;;;;;;;4.50;4.00;;;7.20;99.90;;;;;;4979115;28;20124;-82
2021/11/30 11:08:17;;;;;;;2.83;2.53;;;7.20;99.90;;;;;;4971980;28;20049;-83
2021/11/30 11:10:48;;;;;;;2.65;1.90;;;7.20;99.90;;;;;;5004360;28;20072;-83
2021/11/30 11:13:29;;;;;;;3.75;2.30;;;7.20;99.90;;;;;;4984449;28;20357;-83
2021/11/30 11:15:59;;;;;;;3.35;2.70;;;7.30;99.90;;;;;;4992615;28;20037;-83
2021/11/30 11:18:33;;;;;;;3.15;2.05;;;7.30;99.90;;;;;;4983838;28;20536;-83
2021/11/30 11:21:10;;;;;;;2.17;1.98;;;7.30;99.90;;;;;;4998751;28;20030;-83
2021/11/30 11:23:36;;;;;;;3.80;2.40;;;7.40;99.90;;;;;;4997712;28;20480;-83
2021/11/30 11:26:25;;;;;;;3.13;2.40;;;7.40;99.90;;;;;;4999566;28;20044;-84
2021/11/30 11:28:52;;;;;;;3.65;1.92;;;7.40;99.90;;;;;;5001018;28;20061;-84
2021/11/30 11:31:17;;;;;;;2.85;2.58;;;7.40;99.90;;;;;;4986293;28;20426;-84
2021/11/30 11:33:43;;;;;;;3.38;2.70;;;7.50;99.90;;;;;;4968691;28;20049;-84
2021/11/30 11:36:09;;;;;;;4.05;3.30;;;7.50;99.90;;;;;;4968610;28;20034;-84
2021/11/30 11:38:34;;;;;;;2.67;2.25;;;7.50;99.90;;;;;;5003612;28;20037;-84
2021/11/30 11:41:00;;;;;;;1.95;1.67;;;7.50;99.90;;;;;;5004079;28;20041;-84
2021/11/30 11:43:26;;;;;;;3.58;2.63;;;7.50;99.90;;;;;;4975937;28;20058;-84
2021/11/30 11:46:44;;;;;;;3.00;2.17;;;7.60;99.90;;;;;;4962786;28;20055;-85
2021/11/30 11:50:14;;;;;;;6.63;1.90;;;7.60;99.90;;;;;;4932385;28;20046;-84
2021/11/30 11:52:41;;;;;;;1.45;1.08;;;7.60;99.90;;;;;;4990955;28;20414;-84
2021/11/30 11:55:10;;;;;;;2.63;1.45;;;7.60;99.90;;;;;;4968500;28;20026;-84
2021/11/30 11:57:36;;;;;;;1.85;1.63;;;7.60;99.90;;;;;;5003097;28;20037;-84
2021/11/30 12:00:20;;;;;;;3.70;2.40;;;7.70;99.90;;;;;;4965923;28;20441;-84
2021/11/30 12:02:53;;;;;;;3.15;2.15;;;7.70;99.90;;;;;;5008496;28;20034;-84
2021/11/30 12:05:42;;;;;;;4.60;3.10;;;7.70;99.90;;;;;;4281116;28;10000230;-84
2021/11/30 12:08:17;;;;;;;4.13;2.80;;;7.80;99.90;;;;;;4995986;28;20180;-84
2021/11/30 12:10:43;;;;;;;4.25;3.50;;;7.70;99.90;;;;;;4978120;28;20041;-84
2021/11/30 12:13:09;;;;;;;3.90;3.35;;;7.80;99.90;;;;;;4985283;28;20388;-84
2021/11/30 12:15:58;;;;;;;10.10;4.95;;;7.70;99.90;;;;;;4997533;28;20037;-84
2021/11/30 12:18:25;;;;;;;8.38;5.50;;;7.80;99.90;;;;;;4974970;28;20042;-82
2021/11/30 12:20:50;;;;;;;4.80;3.58;;;7.80;99.90;;;;;;4984803;28;20029;-84
2021/11/30 12:23:32;;;;;;;3.88;3.13;;;7.80;99.90;;;;;;4984169;28;20029;-85
2021/11/30 12:25:57;;;;;;;5.20;3.35;;;7.80;99.90;;;;;;4980916;28;20489;-84
2021/11/30 12:28:38;;;;;;;4.88;3.38;;;7.70;99.90;;;;;;4982585;28;20766;-84
2021/11/30 12:31:05;;;;;;;4.63;3.72;;;7.70;99.90;;;;;;5000343;28;20424;-84
2021/11/30 12:33:35;;;;;;;5.65;3.90;;;7.70;99.90;;;;;;4964345;28;20033;-83
2021/11/30 12:36:06;;;;;;;6.22;4.13;;;7.70;99.90;;;;;;4968062;28;20041;-84
2021/11/30 12:38:50;;;;;;;5.70;3.28;;;7.70;99.90;;;;;;4983172;28;20044;-84
2021/11/30 12:41:30;;;;;;;7.72;4.30;;;7.70;99.90;;;;;;5011966;28;20029;-84
2021/11/30 12:43:58;;;;;;;7.53;5.20;;;7.70;99.90;;;;;;4978057;28;20128;-84
2021/11/30 12:46:45;;;;;;;6.78;4.80;;;7.70;99.90;;;;;;4981840;28;20103;-84
2021/11/30 12:49:27;;;;;;;9.75;5.60;;;7.70;99.90;;;;;;4982569;28;20029;-84
2021/11/30 12:52:10;;;;;;;9.93;6.05;;;7.70;99.90;;;;;;5015181;28;20389;-84
2021/11/30 12:54:39;;;;;;;12.38;5.78;;;7.70;99.90;;;;;;4979254;28;20080;-84
2021/11/30 12:57:05;;;;;;;12.50;7.10;;;7.70;99.90;;;;;;4971545;28;20034;-84
2021/11/30 12:59:37;;;;;;;15.82;7.18;;;7.70;99.90;;;;;;4993078;28;20037;-82
2021/11/30 13:02:49;;;;;;;12.68;6.50;;;7.70;99.90;;;;;;5003099;28;20029;-82
2021/11/30 13:05:21;;;;;;;14.23;8.27;;;7.70;99.90;;;;;;4999164;28;20195;-82
2021/11/30 13:07:47;;;;;;;13.80;8.00;;;7.70;99.90;;;;;;5001984;28;20038;-84
2021/11/30 13:10:44;;;;;;;8.57;6.50;;;7.70;99.90;;;;;;5018659;28;20512;-84
2021/11/30 13:13:18;;;;;;;9.23;5.20;;;7.70;99.90;;;;;;4997971;28;20033;-82
2021/11/30 13:15:49;;;;;;;10.70;5.80;;;7.70;99.90;;;;;;4639474;28;10001223;-84